CheckWX is a tool to help pilots better visualize weather data.  It is not intended as a substitute for an official pre-flight weather briefing.

02:35:13 UTC

KCIR METAR
Cairo Regional Airport
Cairo, Illinois, USA
Current

20 mins ago

KCIR 180215Z AUTO 32011G14KT 10SM OVC034 02/M02 A2999 RMK AO2 T00231018
Observed
Feb-18 @ 02:15 UTC
Wind
  • 320° at 11 KTS
  • Gusting to 14 KTS
Visibility
10 SM
Flight Rules
VFR
Cloud Levels
  • Overcast at 3,400' AGL
Temperature
C / 36°F
Dewpoint
-2°C / 28°F
Humidity
75%
Altimeter
29.99" Hg
Pressure
1015.62 hPa
Previous

40 mins ago

KCIR 180155Z AUTO 33010KT 10SM OVC034 03/M02 A2999 RMK AO2 T00271016
Observed
Feb-18 @ 01:55 UTC
Wind
  • 330° at 10 KTS
Visibility
10 SM
Flight Rules
VFR
Cloud Levels
  • Overcast at 3,400' AGL
Temperature
C / 37°F
Dewpoint
-2°C / 28°F
Humidity
70%
Altimeter
29.99" Hg
Pressure
1015.62 hPa
Previous

60 mins ago

KCIR 180135Z AUTO 30008KT 10SM BKN034 03/M01 A2998 RMK AO2 T00281015
Observed
Feb-18 @ 01:35 UTC
Wind
  • 300° at 8 KTS
Visibility
10 SM
Flight Rules
VFR
Cloud Levels
  • Broken at 3,400' AGL
Temperature
C / 37°F
Dewpoint
-2°C / 28°F
Humidity
70%
Altimeter
29.98" Hg
Pressure
1015.22 hPa